sensor_id;sensor_type;location;lat;lon;timestamp;P1;durP1;ratioP1;P2;durP2;ratioP2
19623;SDS011;9959;49.798;9.928;2022-11-20T00:01:07;51.58;;;19.77;;
19623;SDS011;9959;49.798;9.928;2022-11-20T00:03:36;53.03;;;21.33;;
19623;SDS011;9959;49.798;9.928;2022-11-20T00:06:05;50.42;;;19.30;;
19623;SDS011;9959;49.798;9.928;2022-11-20T00:08:36;43.38;;;17.98;;
19623;SDS011;9959;49.798;9.928;2022-11-20T00:11:04;47.60;;;18.17;;
19623;SDS011;9959;49.798;9.928;2022-11-20T00:13:40;47.95;;;19.63;;
19623;SDS011;9959;49.798;9.928;2022-11-20T00:16:09;53.47;;;19.73;;
19623;SDS011;9959;49.798;9.928;2022-11-20T00:18:38;56.70;;;21.00;;
19623;SDS011;9959;49.798;9.928;2022-11-20T00:21:12;50.73;;;20.20;;
19623;SDS011;9959;49.798;9.928;2022-11-20T00:23:43;51.05;;;20.10;;
19623;SDS011;9959;49.798;9.928;2022-11-20T00:26:12;49.05;;;19.73;;
19623;SDS011;9959;49.798;9.928;2022-11-20T00:28:42;52.58;;;20.40;;
19623;SDS011;9959;49.798;9.928;2022-11-20T00:31:11;52.78;;;20.55;;
19623;SDS011;9959;49.798;9.928;2022-11-20T00:33:41;48.67;;;18.98;;
19623;SDS011;9959;49.798;9.928;2022-11-20T00:36:11;49.78;;;19.58;;
19623;SDS011;9959;49.798;9.928;2022-11-20T00:38:40;48.78;;;18.92;;
19623;SDS011;9959;49.798;9.928;2022-11-20T00:41:10;51.92;;;19.90;;
19623;SDS011;9959;49.798;9.928;2022-11-20T00:43:39;55.33;;;21.25;;
19623;SDS011;9959;49.798;9.928;2022-11-20T00:46:08;49.72;;;19.60;;
19623;SDS011;9959;49.798;9.928;2022-11-20T00:48:37;52.03;;;21.25;;
19623;SDS011;9959;49.798;9.928;2022-11-20T00:51:05;45.40;;;18.10;;
19623;SDS011;9959;49.798;9.928;2022-11-20T00:53:33;49.88;;;20.98;;
19623;SDS011;9959;49.798;9.928;2022-11-20T00:56:02;49.95;;;21.02;;
19623;SDS011;9959;49.798;9.928;2022-11-20T00:58:34;52.47;;;20.52;;
19623;SDS011;9959;49.798;9.928;2022-11-20T01:01:04;56.45;;;21.83;;
19623;SDS011;9959;49.798;9.928;2022-11-20T01:03:33;54.63;;;21.08;;
19623;SDS011;9959;49.798;9.928;2022-11-20T01:06:02;49.38;;;19.67;;
19623;SDS011;9959;49.798;9.928;2022-11-20T01:08:31;57.08;;;21.15;;
19623;SDS011;9959;49.798;9.928;2022-11-20T01:11:00;54.92;;;20.75;;
19623;SDS011;9959;49.798;9.928;2022-11-20T01:13:30;57.90;;;21.67;;
19623;SDS011;9959;49.798;9.928;2022-11-20T01:16:07;56.30;;;20.90;;
19623;SDS011;9959;49.798;9.928;2022-11-20T01:18:35;51.75;;;20.73;;
19623;SDS011;9959;49.798;9.928;2022-11-20T01:21:05;57.92;;;20.85;;
19623;SDS011;9959;49.798;9.928;2022-11-20T01:23:35;53.13;;;20.73;;
19623;SDS011;9959;49.798;9.928;2022-11-20T01:26:05;55.30;;;21.00;;
19623;SDS011;9959;49.798;9.928;2022-11-20T01:28:35;55.28;;;20.60;;
19623;SDS011;9959;49.798;9.928;2022-11-20T01:31:11;62.75;;;21.85;;
19623;SDS011;9959;49.798;9.928;2022-11-20T01:33:40;57.72;;;20.80;;
19623;SDS011;9959;49.798;9.928;2022-11-20T01:36:09;52.90;;;20.65;;
19623;SDS011;9959;49.798;9.928;2022-11-20T01:38:38;60.88;;;22.30;;
19623;SDS011;9959;49.798;9.928;2022-11-20T01:41:06;59.10;;;22.30;;
19623;SDS011;9959;49.798;9.928;2022-11-20T01:43:35;58.72;;;21.27;;
19623;SDS011;9959;49.798;9.928;2022-11-20T01:46:08;56.92;;;21.95;;
19623;SDS011;9959;49.798;9.928;2022-11-20T01:48:45;59.55;;;20.40;;
19623;SDS011;9959;49.798;9.928;2022-11-20T01:51:19;53.03;;;20.38;;
19623;SDS011;9959;49.798;9.928;2022-11-20T01:53:52;56.33;;;20.60;;
19623;SDS011;9959;49.798;9.928;2022-11-20T01:56:23;53.80;;;19.98;;
19623;SDS011;9959;49.798;9.928;2022-11-20T01:58:54;51.47;;;19.52;;
19623;SDS011;9959;49.798;9.928;2022-11-20T02:01:26;56.90;;;20.95;;
19623;SDS011;9959;49.798;9.928;2022-11-20T02:03:55;62.33;;;22.08;;
19623;SDS011;9959;49.798;9.928;2022-11-20T02:06:24;56.65;;;20.70;;
19623;SDS011;9959;49.798;9.928;2022-11-20T02:08:55;53.75;;;21.10;;
19623;SDS011;9959;49.798;9.928;2022-11-20T02:11:23;60.10;;;23.08;;
19623;SDS011;9959;49.798;9.928;2022-11-20T02:13:51;56.85;;;21.45;;
19623;SDS011;9959;49.798;9.928;2022-11-20T02:16:21;59.45;;;20.58;;
19623;SDS011;9959;49.798;9.928;2022-11-20T02:18:53;57.13;;;20.77;;
19623;SDS011;9959;49.798;9.928;2022-11-20T02:21:30;56.90;;;21.75;;
19623;SDS011;9959;49.798;9.928;2022-11-20T02:24:06;54.55;;;20.27;;
19623;SDS011;9959;49.798;9.928;2022-11-20T02:26:41;56.00;;;20.38;;
19623;SDS011;9959;49.798;9.928;2022-11-20T02:29:14;52.13;;;21.52;;
19623;SDS011;9959;49.798;9.928;2022-11-20T02:31:44;54.65;;;20.50;;
19623;SDS011;9959;49.798;9.928;2022-11-20T02:34:13;58.35;;;22.17;;
19623;SDS011;9959;49.798;9.928;2022-11-20T02:36:40;56.60;;;21.27;;
19623;SDS011;9959;49.798;9.928;2022-11-20T02:39:11;55.70;;;21.50;;
19623;SDS011;9959;49.798;9.928;2022-11-20T02:41:43;62.30;;;21.40;;
19623;SDS011;9959;49.798;9.928;2022-11-20T02:44:11;58.35;;;21.10;;
19623;SDS011;9959;49.798;9.928;2022-11-20T02:46:39;59.40;;;21.35;;
19623;SDS011;9959;49.798;9.928;2022-11-20T02:49:07;55.10;;;20.90;;
19623;SDS011;9959;49.798;9.928;2022-11-20T02:51:35;61.45;;;21.52;;
19623;SDS011;9959;49.798;9.928;2022-11-20T02:54:03;60.92;;;21.90;;
19623;SDS011;9959;49.798;9.928;2022-11-20T02:56:33;67.40;;;22.33;;
19623;SDS011;9959;49.798;9.928;2022-11-20T02:59:01;63.47;;;22.42;;
19623;SDS011;9959;49.798;9.928;2022-11-20T03:01:29;58.63;;;22.05;;
19623;SDS011;9959;49.798;9.928;2022-11-20T03:03:57;54.78;;;21.35;;
19623;SDS011;9959;49.798;9.928;2022-11-20T03:06:25;57.30;;;21.40;;
19623;SDS011;9959;49.798;9.928;2022-11-20T03:08:52;63.65;;;22.63;;
19623;SDS011;9959;49.798;9.928;2022-11-20T03:11:20;61.20;;;23.05;;
19623;SDS011;9959;49.798;9.928;2022-11-20T03:13:50;60.67;;;22.63;;
19623;SDS011;9959;49.798;9.928;2022-11-20T03:16:19;63.38;;;22.42;;
19623;SDS011;9959;49.798;9.928;2022-11-20T03:18:48;67.80;;;23.27;;
19623;SDS011;9959;49.798;9.928;2022-11-20T03:21:16;64.35;;;25.23;;
19623;SDS011;9959;49.798;9.928;2022-11-20T03:23:44;65.78;;;22.48;;
19623;SDS011;9959;49.798;9.928;2022-11-20T03:26:13;57.47;;;22.35;;
19623;SDS011;9959;49.798;9.928;2022-11-20T03:28:45;63.10;;;20.50;;
19623;SDS011;9959;49.798;9.928;2022-11-20T03:31:17;61.25;;;21.88;;
19623;SDS011;9959;49.798;9.928;2022-11-20T03:33:46;60.22;;;22.77;;
19623;SDS011;9959;49.798;9.928;2022-11-20T03:36:15;60.58;;;22.13;;
19623;SDS011;9959;49.798;9.928;2022-11-20T03:38:44;62.17;;;22.50;;
19623;SDS011;9959;49.798;9.928;2022-11-20T03:41:14;62.20;;;22.85;;
19623;SDS011;9959;49.798;9.928;2022-11-20T03:43:46;67.00;;;22.15;;
19623;SDS011;9959;49.798;9.928;2022-11-20T03:46:14;63.83;;;23.25;;
19623;SDS011;9959;49.798;9.928;2022-11-20T03:48:44;59.80;;;22.10;;
19623;SDS011;9959;49.798;9.928;2022-11-20T03:51:17;57.92;;;23.27;;
19623;SDS011;9959;49.798;9.928;2022-11-20T03:53:46;56.67;;;22.25;;
19623;SDS011;9959;49.798;9.928;2022-11-20T03:56:15;60.45;;;21.98;;
19623;SDS011;9959;49.798;9.928;2022-11-20T03:58:45;62.75;;;23.70;;
19623;SDS011;9959;49.798;9.928;2022-11-20T04:01:14;61.28;;;22.52;;
19623;SDS011;9959;49.798;9.928;2022-11-20T04:03:45;62.08;;;22.67;;
19623;SDS011;9959;49.798;9.928;2022-11-20T04:06:14;62.40;;;21.70;;
19623;SDS011;9959;49.798;9.928;2022-11-20T04:08:44;62.30;;;22.20;;
19623;SDS011;9959;49.798;9.928;2022-11-20T04:11:19;57.90;;;21.05;;
19623;SDS011;9959;49.798;9.928;2022-11-20T04:13:48;59.47;;;21.60;;
19623;SDS011;9959;49.798;9.928;2022-11-20T04:16:17;62.72;;;23.30;;
19623;SDS011;9959;49.798;9.928;2022-11-20T04:18:50;65.70;;;23.75;;
19623;SDS011;9959;49.798;9.928;2022-11-20T04:21:19;61.08;;;21.75;;
19623;SDS011;9959;49.798;9.928;2022-11-20T04:23:47;61.05;;;22.42;;
19623;SDS011;9959;49.798;9.928;2022-11-20T04:26:15;67.03;;;23.75;;
19623;SDS011;9959;49.798;9.928;2022-11-20T04:28:43;68.13;;;23.33;;
19623;SDS011;9959;49.798;9.928;2022-11-20T04:31:12;59.92;;;22.30;;
19623;SDS011;9959;49.798;9.928;2022-11-20T04:33:41;58.08;;;23.85;;
19623;SDS011;9959;49.798;9.928;2022-11-20T04:36:11;68.18;;;22.33;;
19623;SDS011;9959;49.798;9.928;2022-11-20T04:38:40;69.20;;;23.17;;
19623;SDS011;9959;49.798;9.928;2022-11-20T04:41:11;62.42;;;22.63;;
19623;SDS011;9959;49.798;9.928;2022-11-20T04:43:45;67.63;;;23.17;;
19623;SDS011;9959;49.798;9.928;2022-11-20T04:46:14;59.03;;;21.83;;
19623;SDS011;9959;49.798;9.928;2022-11-20T04:48:42;60.83;;;21.23;;
19623;SDS011;9959;49.798;9.928;2022-11-20T04:51:12;67.97;;;23.95;;
19623;SDS011;9959;49.798;9.928;2022-11-20T04:53:40;63.88;;;23.60;;
19623;SDS011;9959;49.798;9.928;2022-11-20T04:56:10;63.17;;;21.70;;
19623;SDS011;9959;49.798;9.928;2022-11-20T04:58:38;64.30;;;22.83;;
19623;SDS011;9959;49.798;9.928;2022-11-20T05:01:07;72.57;;;24.30;;
19623;SDS011;9959;49.798;9.928;2022-11-20T05:03:38;59.67;;;21.05;;
19623;SDS011;9959;49.798;9.928;2022-11-20T05:06:08;68.57;;;24.33;;
19623;SDS011;9959;49.798;9.928;2022-11-20T05:08:38;70.30;;;24.25;;
19623;SDS011;9959;49.798;9.928;2022-11-20T05:11:07;61.88;;;23.15;;
19623;SDS011;9959;49.798;9.928;2022-11-20T05:13:37;61.88;;;22.33;;
19623;SDS011;9959;49.798;9.928;2022-11-20T05:16:06;62.22;;;23.27;;
19623;SDS011;9959;49.798;9.928;2022-11-20T05:18:36;66.72;;;22.73;;
19623;SDS011;9959;49.798;9.928;2022-11-20T05:21:05;69.35;;;24.38;;
19623;SDS011;9959;49.798;9.928;2022-11-20T05:23:34;66.55;;;22.67;;
19623;SDS011;9959;49.798;9.928;2022-11-20T05:26:04;60.20;;;22.65;;
19623;SDS011;9959;49.798;9.928;2022-11-20T05:28:32;67.72;;;23.35;;
19623;SDS011;9959;49.798;9.928;2022-11-20T05:31:04;63.95;;;23.25;;
19623;SDS011;9959;49.798;9.928;2022-11-20T05:33:33;73.43;;;24.45;;
19623;SDS011;9959;49.798;9.928;2022-11-20T05:36:01;65.80;;;21.35;;
19623;SDS011;9959;49.798;9.928;2022-11-20T05:38:30;71.38;;;23.52;;
19623;SDS011;9959;49.798;9.928;2022-11-20T05:41:04;65.05;;;24.90;;
19623;SDS011;9959;49.798;9.928;2022-11-20T05:43:32;68.60;;;24.55;;
19623;SDS011;9959;49.798;9.928;2022-11-20T05:46:01;65.40;;;24.27;;
19623;SDS011;9959;49.798;9.928;2022-11-20T05:48:30;70.13;;;24.15;;
19623;SDS011;9959;49.798;9.928;2022-11-20T05:50:58;65.00;;;23.53;;
19623;SDS011;9959;49.798;9.928;2022-11-20T05:53:27;66.72;;;22.85;;
19623;SDS011;9959;49.798;9.928;2022-11-20T05:55:56;64.72;;;23.73;;
19623;SDS011;9959;49.798;9.928;2022-11-20T05:58:26;66.30;;;23.13;;
19623;SDS011;9959;49.798;9.928;2022-11-20T06:00:54;63.28;;;24.17;;
19623;SDS011;9959;49.798;9.928;2022-11-20T06:03:22;60.03;;;24.20;;
19623;SDS011;9959;49.798;9.928;2022-11-20T06:05:50;62.53;;;23.02;;
19623;SDS011;9959;49.798;9.928;2022-11-20T06:08:18;62.53;;;22.73;;
19623;SDS011;9959;49.798;9.928;2022-11-20T06:10:46;56.40;;;21.95;;
19623;SDS011;9959;49.798;9.928;2022-11-20T06:13:14;65.57;;;24.67;;
19623;SDS011;9959;49.798;9.928;2022-11-20T06:15:43;70.18;;;24.08;;
19623;SDS011;9959;49.798;9.928;2022-11-20T06:18:15;66.53;;;24.70;;
19623;SDS011;9959;49.798;9.928;2022-11-20T06:20:44;65.05;;;24.42;;
19623;SDS011;9959;49.798;9.928;2022-11-20T06:23:12;62.28;;;23.90;;
19623;SDS011;9959;49.798;9.928;2022-11-20T06:25:41;73.70;;;23.33;;
19623;SDS011;9959;49.798;9.928;2022-11-20T06:28:09;63.10;;;23.25;;
19623;SDS011;9959;49.798;9.928;2022-11-20T06:30:37;72.65;;;24.42;;
19623;SDS011;9959;49.798;9.928;2022-11-20T06:33:13;63.50;;;22.95;;
19623;SDS011;9959;49.798;9.928;2022-11-20T06:35:41;72.07;;;22.70;;
19623;SDS011;9959;49.798;9.928;2022-11-20T06:38:09;74.75;;;24.65;;
19623;SDS011;9959;49.798;9.928;2022-11-20T06:40:39;68.18;;;24.10;;
19623;SDS011;9959;49.798;9.928;2022-11-20T06:43:07;63.67;;;22.20;;
19623;SDS011;9959;49.798;9.928;2022-11-20T06:45:36;67.68;;;23.90;;
19623;SDS011;9959;49.798;9.928;2022-11-20T06:48:06;69.65;;;23.42;;
19623;SDS011;9959;49.798;9.928;2022-11-20T06:50:34;68.03;;;24.33;;
19623;SDS011;9959;49.798;9.928;2022-11-20T06:53:02;69.85;;;25.90;;
19623;SDS011;9959;49.798;9.928;2022-11-20T06:55:31;67.78;;;23.92;;
19623;SDS011;9959;49.798;9.928;2022-11-20T06:57:59;64.85;;;23.88;;
19623;SDS011;9959;49.798;9.928;2022-11-20T07:00:27;67.93;;;23.58;;
19623;SDS011;9959;49.798;9.928;2022-11-20T07:02:55;77.25;;;24.73;;
19623;SDS011;9959;49.798;9.928;2022-11-20T07:05:25;72.22;;;26.20;;
19623;SDS011;9959;49.798;9.928;2022-11-20T07:38:39;77.93;;;27.92;;
19623;SDS011;9959;49.798;9.928;2022-11-20T07:41:07;73.30;;;27.13;;
19623;SDS011;9959;49.798;9.928;2022-11-20T07:43:35;52.08;;;22.65;;
19623;SDS011;9959;49.798;9.928;2022-11-20T07:46:06;58.78;;;25.55;;
19623;SDS011;9959;49.798;9.928;2022-11-20T07:49:54;45.45;;;20.13;;
19623;SDS011;9959;49.798;9.928;2022-11-20T07:52:22;45.28;;;20.40;;
19623;SDS011;9959;49.798;9.928;2022-11-20T07:54:50;49.03;;;21.30;;
19623;SDS011;9959;49.798;9.928;2022-11-20T07:57:18;46.72;;;20.05;;
19623;SDS011;9959;49.798;9.928;2022-11-20T07:59:50;57.58;;;21.75;;
19623;SDS011;9959;49.798;9.928;2022-11-20T08:02:18;55.70;;;21.33;;
19623;SDS011;9959;49.798;9.928;2022-11-20T08:05:19;58.50;;;23.42;;
19623;SDS011;9959;49.798;9.928;2022-11-20T08:07:47;62.88;;;23.00;;
19623;SDS011;9959;49.798;9.928;2022-11-20T08:10:15;65.95;;;25.58;;
19623;SDS011;9959;49.798;9.928;2022-11-20T08:12:44;63.22;;;22.42;;
19623;SDS011;9959;49.798;9.928;2022-11-20T08:15:30;56.35;;;21.40;;
19623;SDS011;9959;49.798;9.928;2022-11-20T08:17:59;64.93;;;21.98;;
19623;SDS011;9959;49.798;9.928;2022-11-20T08:20:50;60.25;;;22.85;;
19623;SDS011;9959;49.798;9.928;2022-11-20T08:23:18;66.90;;;23.63;;
19623;SDS011;9959;49.798;9.928;2022-11-20T08:25:48;63.38;;;23.88;;
19623;SDS011;9959;49.798;9.928;2022-11-20T08:28:17;60.72;;;21.80;;
19623;SDS011;9959;49.798;9.928;2022-11-20T08:30:47;68.40;;;23.95;;
19623;SDS011;9959;49.798;9.928;2022-11-20T08:33:17;65.80;;;21.90;;
19623;SDS011;9959;49.798;9.928;2022-11-20T08:35:45;59.05;;;22.17;;
19623;SDS011;9959;49.798;9.928;2022-11-20T08:38:14;64.88;;;22.67;;
19623;SDS011;9959;49.798;9.928;2022-11-20T08:40:42;63.25;;;22.42;;
19623;SDS011;9959;49.798;9.928;2022-11-20T08:43:31;66.55;;;22.75;;
19623;SDS011;9959;49.798;9.928;2022-11-20T08:45:59;63.55;;;22.17;;
19623;SDS011;9959;49.798;9.928;2022-11-20T08:48:27;67.47;;;23.40;;
19623;SDS011;9959;49.798;9.928;2022-11-20T08:50:57;63.53;;;21.98;;
19623;SDS011;9959;49.798;9.928;2022-11-20T08:53:27;60.22;;;22.85;;
19623;SDS011;9959;49.798;9.928;2022-11-20T08:55:56;68.93;;;22.25;;
19623;SDS011;9959;49.798;9.928;2022-11-20T08:58:24;68.90;;;24.17;;
19623;SDS011;9959;49.798;9.928;2022-11-20T09:00:52;57.13;;;22.73;;
19623;SDS011;9959;49.798;9.928;2022-11-20T09:03:20;67.80;;;22.77;;
19623;SDS011;9959;49.798;9.928;2022-11-20T09:05:51;62.35;;;22.00;;
19623;SDS011;9959;49.798;9.928;2022-11-20T09:08:24;61.08;;;21.88;;
19623;SDS011;9959;49.798;9.928;2022-11-20T09:10:54;60.97;;;23.20;;
19623;SDS011;9959;49.798;9.928;2022-11-20T09:13:24;63.03;;;22.90;;
19623;SDS011;9959;49.798;9.928;2022-11-20T09:15:53;65.18;;;23.63;;
19623;SDS011;9959;49.798;9.928;2022-11-20T09:18:22;71.07;;;22.75;;
19623;SDS011;9959;49.798;9.928;2022-11-20T09:20:51;66.85;;;23.63;;
19623;SDS011;9959;49.798;9.928;2022-11-20T09:23:19;67.72;;;23.45;;
19623;SDS011;9959;49.798;9.928;2022-11-20T09:25:47;57.85;;;21.98;;
19623;SDS011;9959;49.798;9.928;2022-11-20T09:28:17;61.42;;;23.67;;
19623;SDS011;9959;49.798;9.928;2022-11-20T09:30:44;67.38;;;24.40;;
19623;SDS011;9959;49.798;9.928;2022-11-20T09:33:12;60.83;;;22.42;;
19623;SDS011;9959;49.798;9.928;2022-11-20T09:35:40;62.58;;;23.27;;
19623;SDS011;9959;49.798;9.928;2022-11-20T09:38:09;69.30;;;23.98;;
19623;SDS011;9959;49.798;9.928;2022-11-20T09:40:38;70.25;;;24.45;;
19623;SDS011;9959;49.798;9.928;2022-11-20T09:43:12;64.60;;;22.88;;
19623;SDS011;9959;49.798;9.928;2022-11-20T09:45:58;61.72;;;23.00;;
19623;SDS011;9959;49.798;9.928;2022-11-20T09:48:47;66.47;;;25.50;;
19623;SDS011;9959;49.798;9.928;2022-11-20T09:51:28;65.70;;;24.55;;
19623;SDS011;9959;49.798;9.928;2022-11-20T09:54:11;69.18;;;24.77;;
19623;SDS011;9959;49.798;9.928;2022-11-20T09:56:44;54.60;;;20.10;;
19623;SDS011;9959;49.798;9.928;2022-11-20T09:59:18;56.17;;;20.25;;
19623;SDS011;9959;49.798;9.928;2022-11-20T10:01:56;58.70;;;21.50;;
19623;SDS011;9959;49.798;9.928;2022-11-20T10:04:27;48.92;;;20.00;;
19623;SDS011;9959;49.798;9.928;2022-11-20T10:07:07;55.80;;;19.50;;
19623;SDS011;9959;49.798;9.928;2022-11-20T10:09:58;59.42;;;20.77;;
19623;SDS011;9959;49.798;9.928;2022-11-20T10:12:27;60.28;;;20.52;;
19623;SDS011;9959;49.798;9.928;2022-11-20T10:15:12;54.67;;;20.20;;
19623;SDS011;9959;49.798;9.928;2022-11-20T10:18:04;56.15;;;20.80;;
19623;SDS011;9959;49.798;9.928;2022-11-20T10:20:44;52.28;;;20.48;;
19623;SDS011;9959;49.798;9.928;2022-11-20T10:23:20;54.67;;;20.17;;
19623;SDS011;9959;49.798;9.928;2022-11-20T10:26:01;45.55;;;19.33;;
19623;SDS011;9959;49.798;9.928;2022-11-20T10:28:34;46.03;;;19.27;;
19623;SDS011;9959;49.798;9.928;2022-11-20T10:31:27;49.58;;;21.00;;
19623;SDS011;9959;49.798;9.928;2022-11-20T10:33:58;46.78;;;18.50;;
19623;SDS011;9959;49.798;9.928;2022-11-20T10:36:38;44.85;;;17.92;;
19623;SDS011;9959;49.798;9.928;2022-11-20T10:39:14;42.88;;;17.27;;
19623;SDS011;9959;49.798;9.928;2022-11-20T10:41:49;32.75;;;15.90;;
19623;SDS011;9959;49.798;9.928;2022-11-20T10:44:20;33.17;;;15.85;;
19623;SDS011;9959;49.798;9.928;2022-11-20T10:47:05;36.63;;;16.10;;
19623;SDS011;9959;49.798;9.928;2022-11-20T10:49:39;33.20;;;15.55;;
19623;SDS011;9959;49.798;9.928;2022-11-20T10:52:11;35.75;;;16.20;;
19623;SDS011;9959;49.798;9.928;2022-11-20T10:54:49;37.72;;;15.50;;
19623;SDS011;9959;49.798;9.928;2022-11-20T10:57:26;32.58;;;15.48;;
19623;SDS011;9959;49.798;9.928;2022-11-20T11:00:15;37.90;;;17.02;;
19623;SDS011;9959;49.798;9.928;2022-11-20T11:02:47;33.33;;;15.70;;
19623;SDS011;9959;49.798;9.928;2022-11-20T11:05:20;42.28;;;16.35;;
19623;SDS011;9959;49.798;9.928;2022-11-20T11:07:53;30.95;;;14.13;;
19623;SDS011;9959;49.798;9.928;2022-11-20T11:10:24;36.28;;;14.40;;
19623;SDS011;9959;49.798;9.928;2022-11-20T11:12:56;30.52;;;13.82;;
19623;SDS011;9959;49.798;9.928;2022-11-20T11:15:25;25.08;;;11.00;;
19623;SDS011;9959;49.798;9.928;2022-11-20T11:17:56;21.55;;;10.50;;
19623;SDS011;9959;49.798;9.928;2022-11-20T11:20:25;20.45;;;10.82;;
19623;SDS011;9959;49.798;9.928;2022-11-20T11:22:54;23.75;;;11.25;;
19623;SDS011;9959;49.798;9.928;2022-11-20T11:25:25;29.52;;;12.63;;
19623;SDS011;9959;49.798;9.928;2022-11-20T11:27:56;28.90;;;12.18;;
19623;SDS011;9959;49.798;9.928;2022-11-20T11:30:26;26.17;;;11.18;;
19623;SDS011;9959;49.798;9.928;2022-11-20T11:33:04;28.33;;;11.63;;
19623;SDS011;9959;49.798;9.928;2022-11-20T11:35:33;26.65;;;11.82;;
19623;SDS011;9959;49.798;9.928;2022-11-20T11:38:10;25.13;;;10.35;;
19623;SDS011;9959;49.798;9.928;2022-11-20T11:40:42;22.15;;;10.80;;
19623;SDS011;9959;49.798;9.928;2022-11-20T11:43:17;24.90;;;11.68;;
19623;SDS011;9959;49.798;9.928;2022-11-20T11:46:06;25.75;;;11.38;;
19623;SDS011;9959;49.798;9.928;2022-11-20T11:48:56;26.38;;;11.20;;
19623;SDS011;9959;49.798;9.928;2022-11-20T11:51:31;23.35;;;10.98;;
19623;SDS011;9959;49.798;9.928;2022-11-20T11:54:05;19.50;;;10.05;;
19623;SDS011;9959;49.798;9.928;2022-11-20T11:56:43;23.33;;;10.00;;
19623;SDS011;9959;49.798;9.928;2022-11-20T11:59:15;20.77;;;10.35;;
19623;SDS011;9959;49.798;9.928;2022-11-20T12:01:51;20.95;;;9.98;;
19623;SDS011;9959;49.798;9.928;2022-11-20T12:04:28;23.05;;;9.77;;
19623;SDS011;9959;49.798;9.928;2022-11-20T12:07:10;21.20;;;10.52;;
19623;SDS011;9959;49.798;9.928;2022-11-20T12:10:03;22.67;;;10.45;;
19623;SDS011;9959;49.798;9.928;2022-11-20T12:12:34;25.02;;;10.82;;
19623;SDS011;9959;49.798;9.928;2022-11-20T12:15:06;23.20;;;11.18;;
19623;SDS011;9959;49.798;9.928;2022-11-20T12:17:38;21.25;;;10.63;;
19623;SDS011;9959;49.798;9.928;2022-11-20T12:20:11;23.77;;;12.43;;
19623;SDS011;9959;49.798;9.928;2022-11-20T12:22:43;25.40;;;11.20;;
19623;SDS011;9959;49.798;9.928;2022-11-20T12:25:20;21.52;;;10.65;;
19623;SDS011;9959;49.798;9.928;2022-11-20T12:27:53;20.38;;;10.57;;
19623;SDS011;9959;49.798;9.928;2022-11-20T12:30:41;22.95;;;10.98;;
19623;SDS011;9959;49.798;9.928;2022-11-20T12:33:35;27.92;;;12.00;;
19623;SDS011;9959;49.798;9.928;2022-11-20T12:36:18;21.92;;;11.57;;
19623;SDS011;9959;49.798;9.928;2022-11-20T12:38:59;21.20;;;10.57;;
19623;SDS011;9959;49.798;9.928;2022-11-20T12:45:20;21.17;;;10.40;;
19623;SDS011;9959;49.798;9.928;2022-11-20T12:47:59;18.00;;;9.48;;
19623;SDS011;9959;49.798;9.928;2022-11-20T12:50:43;24.58;;;11.00;;
19623;SDS011;9959;49.798;9.928;2022-11-20T12:53:41;19.90;;;9.07;;
19623;SDS011;9959;49.798;9.928;2022-11-20T12:56:20;21.45;;;10.32;;
19623;SDS011;9959;49.798;9.928;2022-11-20T12:58:59;18.50;;;9.75;;
19623;SDS011;9959;49.798;9.928;2022-11-20T13:01:38;20.52;;;9.98;;
19623;SDS011;9959;49.798;9.928;2022-11-20T13:04:18;21.55;;;10.50;;
19623;SDS011;9959;49.798;9.928;2022-11-20T13:07:01;17.98;;;9.35;;
19623;SDS011;9959;49.798;9.928;2022-11-20T13:09:32;20.70;;;10.35;;
19623;SDS011;9959;49.798;9.928;2022-11-20T13:12:05;21.38;;;10.25;;
19623;SDS011;9959;49.798;9.928;2022-11-20T13:14:39;18.88;;;9.10;;
19623;SDS011;9959;49.798;9.928;2022-11-20T13:17:13;17.45;;;9.27;;
19623;SDS011;9959;49.798;9.928;2022-11-20T13:19:48;18.95;;;9.23;;
19623;SDS011;9959;49.798;9.928;2022-11-20T13:22:24;20.15;;;9.57;;
19623;SDS011;9959;49.798;9.928;2022-11-20T13:24:54;20.38;;;9.88;;
19623;SDS011;9959;49.798;9.928;2022-11-20T13:27:23;22.00;;;10.77;;
19623;SDS011;9959;49.798;9.928;2022-11-20T13:30:02;19.00;;;9.43;;
19623;SDS011;9959;49.798;9.928;2022-11-20T13:32:47;20.45;;;9.73;;
19623;SDS011;9959;49.798;9.928;2022-11-20T13:35:23;16.35;;;8.98;;
19623;SDS011;9959;49.798;9.928;2022-11-20T13:38:04;18.85;;;10.10;;
19623;SDS011;9959;49.798;9.928;2022-11-20T13:40:35;20.50;;;9.68;;
19623;SDS011;9959;49.798;9.928;2022-11-20T13:43:11;20.77;;;9.25;;
19623;SDS011;9959;49.798;9.928;2022-11-20T13:45:56;21.25;;;9.23;;
19623;SDS011;9959;49.798;9.928;2022-11-20T13:48:26;22.60;;;9.88;;
19623;SDS011;9959;49.798;9.928;2022-11-20T13:51:02;15.68;;;8.43;;
19623;SDS011;9959;49.798;9.928;2022-11-20T13:53:52;18.55;;;9.30;;
19623;SDS011;9959;49.798;9.928;2022-11-20T13:56:37;17.80;;;8.70;;
19623;SDS011;9959;49.798;9.928;2022-11-20T13:59:20;15.13;;;8.00;;
19623;SDS011;9959;49.798;9.928;2022-11-20T14:01:58;15.68;;;7.68;;
19623;SDS011;9959;49.798;9.928;2022-11-20T14:04:28;16.77;;;9.05;;
19623;SDS011;9959;49.798;9.928;2022-11-20T14:07:00;18.30;;;8.88;;
19623;SDS011;9959;49.798;9.928;2022-11-20T14:09:29;18.70;;;9.45;;
19623;SDS011;9959;49.798;9.928;2022-11-20T14:12:01;14.93;;;8.23;;
19623;SDS011;9959;49.798;9.928;2022-11-20T14:14:30;15.90;;;9.05;;
19623;SDS011;9959;49.798;9.928;2022-11-20T14:17:06;15.88;;;8.05;;
19623;SDS011;9959;49.798;9.928;2022-11-20T14:19:34;17.15;;;8.88;;
19623;SDS011;9959;49.798;9.928;2022-11-20T14:22:08;16.17;;;8.93;;
19623;SDS011;9959;49.798;9.928;2022-11-20T14:24:38;17.65;;;8.70;;
19623;SDS011;9959;49.798;9.928;2022-11-20T14:27:11;16.27;;;7.90;;
19623;SDS011;9959;49.798;9.928;2022-11-20T14:29:41;16.17;;;8.02;;
19623;SDS011;9959;49.798;9.928;2022-11-20T14:32:13;15.57;;;7.60;;
19623;SDS011;9959;49.798;9.928;2022-11-20T14:34:44;16.10;;;8.48;;
19623;SDS011;9959;49.798;9.928;2022-11-20T14:37:17;15.82;;;8.23;;
19623;SDS011;9959;49.798;9.928;2022-11-20T14:39:48;16.60;;;8.50;;
19623;SDS011;9959;49.798;9.928;2022-11-20T14:42:20;15.50;;;7.78;;
19623;SDS011;9959;49.798;9.928;2022-11-20T14:44:50;16.05;;;7.60;;
19623;SDS011;9959;49.798;9.928;2022-11-20T14:47:21;17.20;;;8.18;;
19623;SDS011;9959;49.798;9.928;2022-11-20T14:49:51;17.52;;;8.10;;
19623;SDS011;9959;49.798;9.928;2022-11-20T14:52:21;20.77;;;8.55;;
19623;SDS011;9959;49.798;9.928;2022-11-20T14:54:51;16.77;;;8.25;;
19623;SDS011;9959;49.798;9.928;2022-11-20T14:57:23;17.90;;;8.65;;
19623;SDS011;9959;49.798;9.928;2022-11-20T15:00:04;16.08;;;8.07;;
19623;SDS011;9959;49.798;9.928;2022-11-20T15:02:34;17.35;;;7.82;;
19623;SDS011;9959;49.798;9.928;2022-11-20T15:05:07;16.80;;;8.55;;
19623;SDS011;9959;49.798;9.928;2022-11-20T15:07:36;18.13;;;9.05;;
19623;SDS011;9959;49.798;9.928;2022-11-20T15:10:07;20.30;;;9.52;;
19623;SDS011;9959;49.798;9.928;2022-11-20T15:12:40;17.27;;;9.23;;
19623;SDS011;9959;49.798;9.928;2022-11-20T15:15:14;16.95;;;8.15;;
19623;SDS011;9959;49.798;9.928;2022-11-20T15:17:46;16.90;;;8.73;;
19623;SDS011;9959;49.798;9.928;2022-11-20T15:20:15;18.33;;;9.05;;
19623;SDS011;9959;49.798;9.928;2022-11-20T15:22:44;18.85;;;8.68;;
19623;SDS011;9959;49.798;9.928;2022-11-20T15:25:13;18.13;;;8.98;;
19623;SDS011;9959;49.798;9.928;2022-11-20T15:27:44;22.38;;;10.13;;
19623;SDS011;9959;49.798;9.928;2022-11-20T15:30:14;18.38;;;9.88;;
19623;SDS011;9959;49.798;9.928;2022-11-20T15:32:44;23.85;;;11.45;;
19623;SDS011;9959;49.798;9.928;2022-11-20T15:35:13;17.70;;;9.25;;
19623;SDS011;9959;49.798;9.928;2022-11-20T15:37:42;25.30;;;10.38;;
19623;SDS011;9959;49.798;9.928;2022-11-20T15:40:10;22.17;;;11.02;;